Larrys Creek, Pennsylvania
Current Conditions -  °F | °C
As of 3:54 PM on Saturday 25 Oct 2014 (Local Time) from KIPT Reporting Station
Broken Clouds Broken Clouds  
Wind Chill: 68°   Ceiling: 7000
Heat Index: 68°   Visibility: 10mi
Dew Point: 44°   Wind: 10mph
Humidity: 42%   Direction: 250°WSW
Pressure: 29.67"   Gusts: 23mph
Location:  41.1288°N, 77.1989°W
Report Text: KIPT 251954Z 25009G20KT 10SM BKN070 20/07 A2967 RMK AO2 SLP048 T02000067
Loading
Personal Weather Stations






























Interactive Weather Map
Tropical Storm Tracking
New forecast layout! Learn more

10-Day Weather Forecast

Advertisements
Track Severe Weather on mobile